Terminal Aerodrome Forecast
Issued by NWS Wakefield, VA

Home | Current Version | Previous Version | Text Only | Print | Product List | Glossary On
Versions: 1 2 3 4 5 6 7 8 9 10 11 12 13 14
000
FTUS41 KAKQ 262342
TAFRIC
TAF
KRIC 262342Z 2700/2724 19007KT P6SM BKN200
     FM271000 20005KT 5SM BR BKN015
     FM271400 20008KT P6SM SCT035=

USA.gov is the U.S. government's official web portal to all federal, state and local government web resources and services.